Flugplatz - Wetter - Augsburg

[Quelle: ADDS]
METAR
EDMA 281820Z 22007KT CAVOK 19/14 Q1017 =
TAF
EDMA 281700Z 2818/2903 23005KT 9999 SCT040 =
SR / SS: 03:50 / 19:01 UTC (Günzburg 2017-07-28)

Flugplatz - Wetter - Laupheim

[Quelle: ADDS]
METAR
ETHL 281820Z 20005KT 9999 FEW040 SCT270 19/13 Q1017 BLU+ =
TAF

Notice: Undefined index: sun in /homepages/1/d158740339/htdocs/joomla/modules/mod_wx/tmpl/default.php on line 13

Flugplatz - Wetter - Memmingen

[Quelle: ADDS]
METAR
EDJA 281820Z 22006KT CAVOK 18/13 Q1018 =
TAF
EDJA 281700Z 2818/2903 22007KT 9999 SCT040 =

Notice: Undefined index: sun in /homepages/1/d158740339/htdocs/joomla/modules/mod_wx/tmpl/default.php on line 13

Flugplatz - Wetter - Neuburg/Donau

[Quelle: ADDS]
METAR
ETSN 281820Z 21002KT 9999 FEW055 21/11 Q1017 BLU+ =
TAF
ETSN 281600Z 2817/2902 22005KT 9999 NSW SCT040 BKN080 BECMG 2818/2820 VRB03KT 9999 NSW FEW050 BKN120 BY ETGL =

Notice: Undefined index: sun in /homepages/1/d158740339/htdocs/joomla/modules/mod_wx/tmpl/default.php on line 13

Flugplatz - Wetter - Stuttgart

[Quelle: ADDS]
METAR
EDDS 281820Z 25004KT 210V280 CAVOK 21/12 Q1016 NOSIG =
TAF
EDDS 281700Z 2818/2918 26007KT CAVOK BECMG 2818/2820 VRB03KT BECMG 2907/2909 21006KT =

Notice: Undefined index: sun in /homepages/1/d158740339/htdocs/joomla/modules/mod_wx/tmpl/default.php on line 13

Flugplatz - Wetter - Niederstetten

[Quelle: ADDS]
METAR
ETHN 281820Z 25005KT 9999 FEW040 SCT070 19/11 Q1016 BLU+ =
TAF

Notice: Undefined index: sun in /homepages/1/d158740339/htdocs/joomla/modules/mod_wx/tmpl/default.php on line 13